Time;durP1;ratioP1;P1;durP2;ratioP2;P2;SDS_P1;SDS_P2;PMS_P1;PMS_P2;Temp;Humidity;BMP_temperature;BMP_pressure;BME280_temperature;BME280_humidity;BME280_pressure;Samples;Min_cycle;Max_cycle;Signal;HPM_P1;HPM_P2
2023/06/09 00:02:24;;;;;;;8.00;6.50;;;;;;;13.47;73.82;100437.90;105057;1260;69199;-60
2023/06/09 00:04:53;;;;;;;8.00;6.50;;;;;;;13.47;73.89;100438.61;105017;1265;73656;-64
2023/06/09 00:07:22;;;;;;;7.80;6.80;;;;;;;13.43;73.63;100437.23;105046;1264;83309;-60
2023/06/09 00:09:51;;;;;;;7.90;7.10;;;;;;;13.38;73.77;100433.60;105035;1260;73751;-62
2023/06/09 00:12:19;;;;;;;9.10;6.60;;;;;;;13.33;73.79;100433.50;105044;1261;69217;-64
2023/06/09 00:14:48;;;;;;;7.10;6.40;;;;;;;13.29;73.93;100430.00;105018;1265;69109;-60
2023/06/09 00:17:17;;;;;;;9.50;6.70;;;;;;;13.27;74.18;100428.67;105068;1260;74791;-63
2023/06/09 00:19:47;;;;;;;8.60;7.20;;;;;;;13.27;74.60;100430.44;105004;1265;83342;-61
2023/06/09 00:22:19;;;;;;;7.80;7.00;;;;;;;13.28;74.56;100433.54;105056;1260;72694;-61
2023/06/09 00:24:49;;;;;;;8.00;6.90;;;;;;;13.28;74.44;100430.03;104988;1265;69217;-60
2023/06/09 00:27:17;;;;;;;6.70;6.00;;;;;;;13.25;74.55;100433.14;105040;1266;69189;-65
2023/06/09 00:29:46;;;;;;;9.60;6.60;;;;;;;13.24;74.57;100434.96;105086;1260;74906;-60
2023/06/09 00:32:14;;;;;;;8.40;6.20;;;;;;;13.23;74.94;100433.61;104992;1266;83400;-61
2023/06/09 00:34:45;;;;;;;10.70;6.90;;;;;;;13.22;75.03;100437.15;104991;1260;73902;-63
2023/06/09 00:37:14;;;;;;;6.90;6.00;;;;;;;13.21;75.11;100438.06;105013;1260;69145;-64
2023/06/09 00:39:42;;;;;;;9.30;6.50;;;;;;;13.17;75.04;100439.30;105017;1260;69090;-63
2023/06/09 00:42:11;;;;;;;9.00;6.70;;;;;;;13.16;75.36;100438.81;104839;1265;75105;-61
2023/06/09 00:44:39;;;;;;;8.00;6.80;;;;;;;13.15;75.47;100441.16;104832;1260;83844;-63
2023/06/09 00:47:08;;;;;;;8.00;5.90;;;;;;;13.11;75.49;100442.18;104940;1265;73746;-59
2023/06/09 00:49:36;;;;;;;8.50;6.80;;;;;;;13.07;75.59;100444.52;104954;1265;69219;-60
2023/06/09 00:52:08;;;;;;;9.20;6.50;;;;;;;13.05;75.78;100443.73;105077;1260;69250;-60
2023/06/09 00:54:38;;;;;;;8.00;7.20;;;;;;;13.04;76.04;100445.19;104826;1260;74917;-60
2023/06/09 00:57:07;;;;;;;11.60;6.50;;;;;;;13.03;76.09;100444.00;105067;1264;83283;-62
2023/06/09 00:59:36;;;;;;;9.20;6.90;;;;;;;12.97;76.12;100446.36;105067;1260;71878;-60
2023/06/09 01:02:05;;;;;;;7.40;6.60;;;;;;;12.95;76.30;100447.16;105044;1260;69110;-63
2023/06/09 01:04:34;;;;;;;8.20;6.40;;;;;;;12.92;76.38;100448.19;104981;1265;69199;-64
2023/06/09 01:07:33;;;;;;;8.00;6.80;;;;;;;12.87;76.34;100451.39;105029;1265;75168;-59
2023/06/09 01:10:20;;;;;;;6.80;6.10;;;;;;;12.84;76.73;100450.81;104790;1265;83539;-60
2023/06/09 01:13:14;;;;;;;7.50;5.90;;;;;;;12.81;76.41;100449.20;105024;1265;73777;-62
2023/06/09 01:15:46;;;;;;;7.90;6.20;;;;;;;12.76;76.49;100448.21;104912;1265;69113;-63
2023/06/09 01:18:15;;;;;;;7.40;6.50;;;;;;;12.75;76.76;100448.43;105040;1260;69147;-62
2023/06/09 01:21:06;;;;;;;8.70;6.50;;;;;;;12.77;76.76;100452.41;104899;1260;75544;-60
2023/06/09 01:24:00;;;;;;;6.20;5.60;;;;;;;12.74;76.72;100450.05;105062;1260;83538;-60
2023/06/09 01:26:30;;;;;;;8.10;6.20;;;;;;;12.70;76.57;100447.44;105000;1264;73954;-63
2023/06/09 01:28:59;;;;;;;8.70;6.70;;;;;;;12.64;76.63;100444.87;104964;1260;69161;-60
2023/06/09 01:31:28;;;;;;;7.70;6.60;;;;;;;12.59;76.57;100442.49;104878;1260;69309;-60
2023/06/09 01:33:56;;;;;;;8.80;6.60;;;;;;;12.57;76.72;100441.73;105063;1260;74065;-60
2023/06/09 01:36:25;;;;;;;7.90;6.60;;;;;;;12.55;76.70;100438.80;104941;1265;83461;-60
2023/06/09 01:38:53;;;;;;;7.00;6.30;;;;;;;12.52;76.84;100438.59;104968;1260;72379;-64
2023/06/09 01:41:22;;;;;;;9.30;7.10;;;;;;;12.50;76.84;100437.81;104815;1268;69554;-64
2023/06/09 01:43:51;;;;;;;7.80;6.00;;;;;;;12.48;76.95;100435.77;104847;1260;69177;-62
2023/06/09 01:46:19;;;;;;;8.80;7.10;;;;;;;12.43;76.87;100429.88;105050;1260;73857;-61
2023/06/09 01:49:17;;;;;;;9.40;6.50;;;;;;;12.40;77.05;100429.48;104936;1265;83498;-60
2023/06/09 01:51:52;;;;;;;7.30;6.10;;;;;;;12.35;77.05;100427.42;105008;1264;73764;-61
2023/06/09 01:54:25;;;;;;;7.40;6.60;;;;;;;12.33;77.32;100427.84;104872;1265;69187;-61
2023/06/09 01:57:07;;;;;;;9.10;6.60;;;;;;;12.32;77.19;100430.91;105080;1265;69155;-62
2023/06/09 01:59:46;;;;;;;7.70;6.80;;;;;;;12.30;77.44;100429.77;104901;1260;74593;-61
2023/06/09 02:02:15;;;;;;;9.90;7.00;;;;;;;12.26;77.34;100428.84;105016;1263;83453;-62
2023/06/09 02:04:45;;;;;;;11.30;6.90;;;;;;;12.23;77.27;100428.64;104844;1265;73881;-64
2023/06/09 02:07:19;;;;;;;12.40;6.70;;;;;;;12.23;77.48;100437.58;104802;1260;69098;-60
2023/06/09 02:09:47;;;;;;;9.60;6.70;;;;;;;12.23;77.45;100433.40;104882;1262;69238;-61
2023/06/09 02:12:16;;;;;;;8.60;7.00;;;;;;;12.21;77.64;100432.04;104958;1260;74930;-60
2023/06/09 02:14:44;;;;;;;8.50;6.70;;;;;;;12.18;77.31;100426.92;104826;1265;83345;-64
2023/06/09 02:17:13;;;;;;;7.80;6.30;;;;;;;12.14;77.39;100423.59;105055;1266;73648;-61
2023/06/09 02:19:45;;;;;;;9.60;7.20;;;;;;;12.11;77.49;100427.10;104882;1265;69141;-63
2023/06/09 02:22:13;;;;;;;10.40;7.50;;;;;;;12.09;77.86;100425.95;105040;1265;69191;-60
2023/06/09 02:24:52;;;;;;;8.70;6.30;;;;;;;12.10;78.09;100429.57;105010;1261;74665;-60
2023/06/09 02:27:21;;;;;;;10.00;7.10;;;;;;;12.11;78.04;100430.77;104973;1265;83315;-60
2023/06/09 02:29:49;;;;;;;10.30;7.00;;;;;;;12.10;78.24;100431.83;104985;1260;74153;-60
2023/06/09 02:32:18;;;;;;;16.60;7.40;;;;;;;12.13;78.47;100436.28;104983;1263;69226;-58
2023/06/09 02:34:47;;;;;;;8.00;6.40;;;;;;;12.14;78.38;100437.10;104975;1264;69146;-58
2023/06/09 02:37:18;;;;;;;9.10;7.10;;;;;;;12.13;78.31;100439.95;104866;1260;73938;-58
2023/06/09 02:39:47;;;;;;;8.00;7.20;;;;;;;12.14;78.38;100438.69;104995;1260;83674;-59
2023/06/09 02:42:16;;;;;;;8.60;6.60;;;;;;;12.14;78.53;100439.20;104970;1265;73667;-62
2023/06/09 02:44:48;;;;;;;8.80;7.00;;;;;;;12.12;78.50;100443.48;105034;1261;69205;-62
2023/06/09 02:47:19;;;;;;;9.40;6.80;;;;;;;12.13;78.51;100442.74;105110;1260;69096;-59
2023/06/09 02:49:49;;;;;;;9.20;6.90;;;;;;;12.13;78.60;100446.24;105063;1266;74016;-62
2023/06/09 02:52:18;;;;;;;9.40;6.80;;;;;;;12.16;78.86;100450.17;105025;1266;82608;-59
2023/06/09 02:54:49;;;;;;;9.20;7.10;;;;;;;12.19;78.78;100449.14;104952;1265;73868;-58
2023/06/09 02:57:18;;;;;;;9.20;7.10;;;;;;;12.21;78.65;100451.67;105024;1261;69233;-57
2023/06/09 02:59:47;;;;;;;9.10;7.10;;;;;;;12.21;78.55;100450.98;105016;1265;69189;-60
2023/06/09 03:02:17;;;;;;;9.10;6.90;;;;;;;12.19;78.42;100450.38;105007;1265;73975;-62
2023/06/09 03:04:46;;;;;;;10.20;7.60;;;;;;;12.17;78.48;100449.58;105031;1261;82625;-61
2023/06/09 03:07:16;;;;;;;9.40;7.00;;;;;;;12.15;78.40;100450.88;104899;1260;73829;-61
2023/06/09 03:09:44;;;;;;;10.90;7.60;;;;;;;12.12;78.40;100450.52;105025;1260;69311;-57
2023/06/09 03:12:13;;;;;;;9.10;7.60;;;;;;;12.09;78.65;100455.90;104835;1260;69102;-60
2023/06/09 03:14:42;;;;;;;7.60;6.80;;;;;;;12.09;78.55;100454.31;105066;1260;74817;-59
2023/06/09 03:17:11;;;;;;;8.30;7.10;;;;;;;12.09;78.92;100448.34;105034;1265;83196;-59
2023/06/09 03:19:43;;;;;;;10.70;7.30;;;;;;;12.10;79.11;100451.81;105035;1260;73453;-59
2023/06/09 03:22:11;;;;;;;9.40;7.90;;;;;;;12.15;79.31;100451.07;104969;1260;69110;-55
2023/06/09 03:24:44;;;;;;;12.70;8.30;;;;;;;12.17;79.27;100453.45;105006;1260;69200;-58
2023/06/09 03:27:13;;;;;;;8.00;7.20;;;;;;;12.19;79.54;100450.18;105020;1264;73993;-58
2023/06/09 03:29:45;;;;;;;8.20;7.40;;;;;;;12.23;79.61;100452.98;104956;1264;83385;-60
2023/06/09 03:32:14;;;;;;;9.40;8.00;;;;;;;12.27;79.72;100450.71;105016;1266;72531;-61
2023/06/09 03:34:43;;;;;;;9.10;7.30;;;;;;;12.32;79.82;100446.84;104997;1265;69592;-60
2023/06/09 03:37:15;;;;;;;8.90;8.00;;;;;;;12.35;79.90;100448.10;104973;1266;69151;-56
2023/06/09 03:39:44;;;;;;;8.30;7.50;;;;;;;12.43;80.02;100447.06;105047;1266;73989;-59
2023/06/09 03:42:15;;;;;;;11.00;8.00;;;;;;;12.50;80.37;100445.87;105023;1260;83172;-59
2023/06/09 03:44:43;;;;;;;11.10;8.50;;;;;;;12.56;80.30;100447.34;105000;1260;73640;-60
2023/06/09 03:47:14;;;;;;;12.50;8.50;;;;;;;12.64;80.74;100449.78;105011;1264;69237;-60
2023/06/09 03:49:43;;;;;;;11.20;8.20;;;;;;;12.78;81.06;100459.87;104950;1265;69083;-60
2023/06/09 03:52:11;;;;;;;12.60;8.90;;;;;;;12.93;81.25;100459.35;105039;1260;73935;-58
2023/06/09 03:54:40;;;;;;;12.70;9.00;;;;;;;13.08;81.39;100462.86;104840;1266;83339;-58
2023/06/09 03:57:08;;;;;;;11.60;9.40;;;;;;;13.22;81.35;100462.60;104916;1266;73741;-59
2023/06/09 03:59:37;;;;;;;11.30;9.30;;;;;;;13.32;81.35;100462.31;105007;1266;69511;-59
2023/06/09 04:02:06;;;;;;;10.20;9.00;;;;;;;13.45;81.47;100462.05;104893;1266;69206;-61
2023/06/09 04:04:38;;;;;;;11.30;8.70;;;;;;;13.56;81.50;100462.55;104960;1260;74986;-62
2023/06/09 04:07:07;;;;;;;11.20;9.00;;;;;;;13.69;81.68;100463.71;105004;1265;82615;-58
2023/06/09 04:09:36;;;;;;;13.70;10.40;;;;;;;13.81;81.23;100464.84;104816;1266;73947;-60
2023/06/09 04:12:06;;;;;;;11.30;9.60;;;;;;;13.96;80.91;100458.85;104932;1265;70628;-60
2023/06/09 04:14:35;;;;;;;13.50;10.00;;;;;;;14.11;80.75;100463.02;105066;1265;69096;-58
2023/06/09 04:17:05;;;;;;;10.40;9.30;;;;;;;14.23;80.25;100460.95;105005;1265;74979;-61
2023/06/09 04:19:34;;;;;;;11.00;9.50;;;;;;;14.37;80.22;100458.72;104991;1266;83367;-57
2023/06/09 04:22:07;;;;;;;11.80;9.80;;;;;;;14.52;80.30;100458.10;104864;1266;73024;-54
2023/06/09 04:24:36;;;;;;;12.00;10.00;;;;;;;14.65;80.02;100462.17;104906;1265;69195;-57
2023/06/09 04:27:05;;;;;;;13.80;11.00;;;;;;;14.76;79.74;100460.73;104963;1265;69203;-56
2023/06/09 04:29:34;;;;;;;12.60;10.50;;;;;;;14.86;79.53;100458.40;104888;1265;73926;-57
2023/06/09 04:32:06;;;;;;;21.90;11.10;;;;;;;14.97;79.29;100457.80;104851;1266;83527;-56
2023/06/09 04:34:38;;;;;;;12.10;10.30;;;;;;;15.10;78.73;100453.10;104866;1264;72713;-53
2023/06/09 04:37:08;;;;;;;14.00;11.50;;;;;;;15.21;78.22;100453.70;104946;1265;69046;-53
2023/06/09 04:39:37;;;;;;;12.00;10.80;;;;;;;15.32;78.30;100451.47;104873;1265;69134;-61
2023/06/09 04:42:08;;;;;;;12.10;10.40;;;;;;;15.45;77.99;100454.32;104942;1266;73857;-59
2023/06/09 04:44:39;;;;;;;12.70;10.20;;;;;;;15.54;77.64;100453.06;104973;1265;83521;-56
2023/06/09 04:47:12;;;;;;;12.20;10.70;;;;;;;15.63;77.43;100451.67;104911;1260;72832;-60
2023/06/09 04:49:42;;;;;;;11.50;10.30;;;;;;;15.72;77.04;100456.31;104840;1265;69305;-59
2023/06/09 04:52:11;;;;;;;11.80;10.60;;;;;;;15.80;76.89;100458.98;104946;1265;69343;-58
2023/06/09 04:54:40;;;;;;;13.50;10.90;;;;;;;15.89;76.90;100458.89;104843;1266;74067;-57
2023/06/09 04:57:09;;;;;;;14.50;10.90;;;;;;;15.96;76.65;100455.79;104850;1268;83346;-60
2023/06/09 04:59:40;;;;;;;15.10;11.90;;;;;;;16.04;76.44;100453.72;105029;1265;72810;-59
2023/06/09 05:02:09;;;;;;;17.20;12.10;;;;;;;16.10;75.95;100457.11;104810;1266;69068;-59
2023/06/09 05:04:39;;;;;;;12.30;10.90;;;;;;;16.17;75.81;100462.88;104975;1274;69222;-60
2023/06/09 05:07:09;;;;;;;11.90;10.60;;;;;;;16.25;75.72;100464.63;104910;1266;75017;-60
2023/06/09 05:09:38;;;;;;;13.90;11.00;;;;;;;16.35;75.61;100462.15;104960;1266;83275;-62
2023/06/09 05:12:07;;;;;;;14.10;11.30;;;;;;;16.42;75.47;100465.08;104929;1265;72735;-61
2023/06/09 05:14:36;;;;;;;13.40;11.40;;;;;;;16.49;75.24;100457.77;104938;1266;69139;-62
2023/06/09 05:17:04;;;;;;;21.10;11.60;;;;;;;16.57;75.18;100461.90;104992;1266;69478;-58
2023/06/09 05:19:33;;;;;;;12.90;11.10;;;;;;;16.65;75.21;100465.40;104968;1265;74937;-61
2023/06/09 05:22:02;;;;;;;14.60;11.00;;;;;;;16.75;74.86;100467.45;104942;1265;82312;-59
2023/06/09 05:24:30;;;;;;;13.50;11.80;;;;;;;16.83;74.51;100467.21;104948;1266;73392;-60
2023/06/09 05:26:59;;;;;;;12.90;11.00;;;;;;;16.88;74.26;100463.48;104973;1265;69241;-60
2023/06/09 05:29:28;;;;;;;12.50;11.30;;;;;;;16.95;74.21;100467.69;104749;1265;69140;-60
2023/06/09 05:31:56;;;;;;;11.80;10.60;;;;;;;17.01;74.01;100469.60;105050;1267;73861;-58
2023/06/09 05:34:25;;;;;;;12.50;11.30;;;;;;;17.07;73.85;100470.09;104987;1265;83369;-61
2023/06/09 05:36:54;;;;;;;11.70;10.50;;;;;;;17.13;73.65;100466.55;104947;1266;72721;-59
2023/06/09 05:39:23;;;;;;;13.10;10.60;;;;;;;17.20;73.52;100466.30;104939;1266;69276;-62
2023/06/09 05:41:51;;;;;;;12.00;10.70;;;;;;;17.26;73.53;100463.41;104788;1264;69237;-58
2023/06/09 05:44:20;;;;;;;12.10;10.80;;;;;;;17.34;73.51;100465.50;104890;1264;73971;-61
2023/06/09 05:46:48;;;;;;;12.80;10.50;;;;;;;17.43;73.39;100460.90;104984;1265;83320;-62
2023/06/09 05:49:17;;;;;;;11.50;10.30;;;;;;;17.51;73.34;100458.05;104942;1265;73401;-64
2023/06/09 05:51:45;;;;;;;11.50;10.20;;;;;;;17.62;73.25;100459.88;104927;1265;69101;-61
2023/06/09 05:54:14;;;;;;;11.30;10.10;;;;;;;17.72;73.09;100462.55;104864;1266;69134;-61
2023/06/09 05:56:44;;;;;;;11.20;9.80;;;;;;;17.82;73.10;100463.69;104797;1266;75292;-60
2023/06/09 05:59:13;;;;;;;10.40;9.30;;;;;;;17.92;72.95;100463.92;104741;1265;238927;-61
2023/06/09 06:01:42;;;;;;;12.90;10.00;;;;;;;18.03;73.07;100467.42;104783;1266;72706;-60
2023/06/09 06:04:10;;;;;;;10.10;9.10;;;;;;;18.15;72.98;100471.91;105001;1266;69228;-63
2023/06/09 06:06:39;;;;;;;12.70;9.50;;;;;;;18.26;72.81;100469.73;104825;1265;69196;-59
2023/06/09 06:09:08;;;;;;;10.50;9.20;;;;;;;18.38;72.72;100469.31;104985;1265;74582;-59
2023/06/09 06:11:36;;;;;;;11.00;8.80;;;;;;;18.49;72.84;100467.81;104956;1265;83128;-62
2023/06/09 06:14:05;;;;;;;10.10;8.90;;;;;;;18.62;72.65;100468.51;105011;1264;73514;-62
2023/06/09 06:16:33;;;;;;;9.70;8.40;;;;;;;18.76;72.40;100466.69;105000;1264;69215;-61
2023/06/09 06:19:02;;;;;;;8.30;7.20;;;;;;;18.92;72.17;100466.84;104824;1264;69158;-64
2023/06/09 06:21:30;;;;;;;7.90;7.00;;;;;;;19.09;72.00;100464.92;105051;1265;74880;-61
2023/06/09 06:23:59;;;;;;;10.00;7.50;;;;;;;19.28;71.88;100465.48;104772;1267;82640;-64
2023/06/09 06:26:28;;;;;;;12.30;7.00;;;;;;;19.47;71.64;100470.65;104918;1265;73559;-62
2023/06/09 06:28:56;;;;;;;11.00;7.60;;;;;;;19.66;71.37;100469.94;104900;1265;69202;-61
2023/06/09 06:31:28;;;;;;;7.80;7.00;;;;;;;19.85;71.00;100472.52;104939;1266;69184;-62
2023/06/09 06:33:58;;;;;;;7.20;6.50;;;;;;;20.01;70.63;100468.59;105025;1264;73918;-64
2023/06/09 06:36:26;;;;;;;8.50;6.60;;;;;;;20.19;70.17;100469.05;105042;1266;83580;-61
2023/06/09 06:38:55;;;;;;;8.10;6.50;;;;;;;20.35;69.57;100471.89;104984;1260;72667;-61
2023/06/09 06:41:23;;;;;;;9.40;6.50;;;;;;;20.49;69.04;100472.21;105000;1260;69191;-60
2023/06/09 06:43:52;;;;;;;10.50;7.20;;;;;;;20.62;68.44;100473.77;105036;1265;69141;-61
2023/06/09 06:46:20;;;;;;;8.50;7.20;;;;;;;20.73;68.00;100472.86;104971;1265;75719;-64
2023/06/09 06:48:50;;;;;;;10.10;7.20;;;;;;;20.85;67.83;100474.11;104952;1264;83805;-61
2023/06/09 06:51:19;;;;;;;9.00;6.60;;;;;;;21.02;67.65;100472.22;104988;1266;72896;-67
2023/06/09 06:53:47;;;;;;;12.60;6.90;;;;;;;21.20;66.87;100472.73;104882;1260;69187;-69
2023/06/09 06:56:15;;;;;;;6.20;5.50;;;;;;;21.33;66.30;100477.87;104890;1261;69316;-68
2023/06/09 06:58:44;;;;;;;6.50;5.80;;;;;;;21.45;65.64;100482.09;105040;1261;73767;-66
2023/06/09 07:01:14;;;;;;;8.20;6.60;;;;;;;21.57;65.28;100482.86;104841;1265;83508;-65
2023/06/09 07:03:43;;;;;;;7.40;6.30;;;;;;;21.71;65.17;100484.81;104782;1266;73947;-65
2023/06/09 07:06:11;;;;;;;6.90;5.80;;;;;;;21.86;64.89;100484.60;104807;1261;69180;-70
2023/06/09 07:08:40;;;;;;;7.30;5.40;;;;;;;21.98;63.92;100482.13;104818;1267;69188;-65
2023/06/09 07:11:08;;;;;;;6.90;5.60;;;;;;;22.11;63.37;100482.73;104949;1261;74681;-66
2023/06/09 07:13:37;;;;;;;7.30;5.60;;;;;;;22.20;63.07;100478.52;104859;1265;83284;-66
2023/06/09 07:16:06;;;;;;;7.00;5.70;;;;;;;22.32;62.68;100479.48;104815;1266;73421;-67
2023/06/09 07:18:34;;;;;;;7.30;6.30;;;;;;;22.43;62.32;100478.89;104917;1261;69097;-68
2023/06/09 07:21:03;;;;;;;6.80;5.80;;;;;;;22.55;61.97;100478.46;104880;1265;69220;-63
2023/06/09 07:23:32;;;;;;;10.50;6.30;;;;;;;22.66;61.54;100477.17;104804;1266;74620;-65
2023/06/09 07:26:01;;;;;;;8.20;6.50;;;;;;;22.74;61.21;100473.42;104903;1265;83576;-62
2023/06/09 07:28:29;;;;;;;6.40;5.70;;;;;;;22.84;60.90;100472.16;105001;1260;73741;-66
2023/06/09 07:30:58;;;;;;;6.30;5.30;;;;;;;22.94;60.52;100469.71;104996;1266;69324;-64
2023/06/09 07:33:31;;;;;;;7.30;5.70;;;;;;;23.02;60.16;100472.39;104855;1266;69218;-71
2023/06/09 07:35:59;;;;;;;7.90;6.10;;;;;;;23.09;59.94;100471.80;104975;1261;73894;-71
2023/06/09 07:38:28;;;;;;;6.90;6.10;;;;;;;23.13;59.26;100468.05;104971;1267;82692;-66
2023/06/09 07:40:57;;;;;;;6.90;5.80;;;;;;;23.16;59.39;100461.60;104913;1265;73389;-66
2023/06/09 07:43:25;;;;;;;6.70;5.90;;;;;;;23.25;59.22;100461.95;104978;1266;69093;-65
2023/06/09 07:45:54;;;;;;;7.90;5.90;;;;;;;23.36;58.98;100462.63;104921;1266;69238;-62
2023/06/09 07:48:22;;;;;;;6.20;5.60;;;;;;;23.44;58.60;100463.20;104763;1264;75153;-63
2023/06/09 07:50:52;;;;;;;6.90;5.80;;;;;;;23.50;57.91;100460.34;104943;1260;82632;-62
2023/06/09 07:53:29;;;;;;;9.70;5.70;;;;;;;23.50;57.57;100457.63;104890;1266;75459;-63
2023/06/09 07:55:58;;;;;;;7.50;6.70;;;;;;;23.50;57.84;100458.88;104951;1260;69107;-69
2023/06/09 07:58:27;;;;;;;10.80;6.90;;;;;;;23.61;57.86;100457.38;104971;1265;69286;-68
2023/06/09 08:00:55;;;;;;;6.80;6.00;;;;;;;23.72;57.62;100459.55;104829;1261;74771;-66
2023/06/09 08:03:23;;;;;;;7.40;6.30;;;;;;;23.87;57.39;100455.72;104989;1265;83379;-65
2023/06/09 08:05:52;;;;;;;8.10;6.30;;;;;;;24.00;57.18;100459.17;104775;1264;74045;-66
2023/06/09 08:08:21;;;;;;;8.70;6.20;;;;;;;24.12;56.91;100455.17;104736;1261;69254;-66
2023/06/09 08:10:49;;;;;;;10.40;6.00;;;;;;;24.24;56.39;100455.09;104845;1267;69139;-68
2023/06/09 08:13:17;;;;;;;10.20;6.30;;;;;;;24.32;56.22;100452.94;104830;1266;75292;-70
2023/06/09 08:15:46;;;;;;;7.10;6.40;;;;;;;24.37;55.81;100459.40;104860;1266;82635;-64
2023/06/09 08:18:14;;;;;;;7.20;5.90;;;;;;;24.42;55.81;100459.52;104953;1266;73475;-62
2023/06/09 08:20:43;;;;;;;7.80;6.10;;;;;;;24.48;55.22;100461.61;104761;1263;69168;-61
2023/06/09 08:23:12;;;;;;;7.80;6.00;;;;;;;24.51;54.95;100461.58;104901;1266;69305;-64
2023/06/09 08:25:40;;;;;;;6.90;5.70;;;;;;;24.55;54.46;100465.42;104930;1260;74887;-62
2023/06/09 08:28:09;;;;;;;6.30;5.60;;;;;;;24.49;54.16;100458.10;104853;1265;83580;-62
2023/06/09 08:30:38;;;;;;;6.70;5.10;;;;;;;24.52;54.36;100459.48;104924;1266;73810;-63
2023/06/09 08:33:07;;;;;;;6.20;5.00;;;;;;;24.61;54.24;100457.05;104766;1265;69229;-64
2023/06/09 08:35:35;;;;;;;5.60;5.10;;;;;;;24.76;54.15;100454.54;104850;1266;69298;-63
2023/06/09 08:38:04;;;;;;;6.60;5.30;;;;;;;24.94;53.98;100455.69;104741;1261;75163;-63
2023/06/09 08:40:34;;;;;;;7.10;5.40;;;;;;;24.98;53.20;100456.38;104814;1267;83572;-63
2023/06/09 08:43:05;;;;;;;5.80;5.20;;;;;;;25.05;53.26;100455.28;104957;1260;73802;-63
2023/06/09 08:45:34;;;;;;;9.60;5.60;;;;;;;25.21;52.96;100457.73;104964;1261;69113;-63
2023/06/09 08:48:04;;;;;;;7.00;5.30;;;;;;;25.26;52.41;100459.52;104879;1261;69411;-63
2023/06/09 08:50:41;;;;;;;6.40;4.60;;;;;;;25.30;51.97;100457.70;104999;1261;75312;-64
2023/06/09 08:53:10;;;;;;;5.20;4.40;;;;;;;25.33;51.79;100454.20;104973;1261;82314;-64
2023/06/09 08:55:39;;;;;;;7.70;4.80;;;;;;;25.47;51.78;100453.30;104839;1266;72452;-67
2023/06/09 08:58:08;;;;;;;6.50;5.00;;;;;;;25.59;51.64;100453.20;104982;1260;69183;-64
2023/06/09 09:00:37;;;;;;;4.90;4.20;;;;;;;25.67;50.97;100457.49;105012;1267;69192;-63
2023/06/09 09:03:06;;;;;;;5.90;4.60;;;;;;;25.74;50.54;100454.61;104978;1267;74969;-64
2023/06/09 09:05:35;;;;;;;6.40;5.10;;;;;;;25.71;50.32;100454.38;104814;1267;82311;-65
2023/06/09 09:08:04;;;;;;;8.10;4.70;;;;;;;25.67;50.07;100453.35;104745;1260;72884;-60
2023/06/09 09:10:32;;;;;;;5.10;4.00;;;;;;;25.69;49.84;100454.73;104773;1261;69216;-61
2023/06/09 09:13:02;;;;;;;5.60;3.60;;;;;;;25.71;49.48;100450.11;104878;1267;69231;-61
2023/06/09 09:15:31;;;;;;;6.10;4.50;;;;;;;25.76;49.16;100454.20;105087;1260;74967;-59
2023/06/09 09:17:59;;;;;;;6.40;4.30;;;;;;;25.76;48.79;100454.34;104869;1261;83503;-60
2023/06/09 09:20:35;;;;;;;6.60;4.30;;;;;;;25.77;48.70;100454.63;104947;1267;73744;-60
2023/06/09 09:23:07;;;;;;;5.80;4.10;;;;;;;25.77;48.50;100449.51;104922;1260;69198;-60
2023/06/09 09:25:35;;;;;;;4.80;4.10;;;;;;;25.84;48.67;100453.79;104895;1265;69237;-60
2023/06/09 09:28:05;;;;;;;5.60;4.20;;;;;;;25.92;48.39;100451.88;104860;1261;74838;-59
2023/06/09 09:30:42;;;;;;;4.00;3.60;;;;;;;25.93;48.16;100450.59;104940;1265;83525;-60
2023/06/09 09:33:21;;;;;;;5.70;4.30;;;;;;;25.99;48.23;100448.52;104914;1264;73767;-59
2023/06/09 09:35:53;;;;;;;7.40;4.10;;;;;;;26.03;47.81;100443.48;104900;1260;69063;-59
2023/06/09 09:38:30;;;;;;;5.30;4.40;;;;;;;26.14;47.91;100438.73;104972;1260;69138;-61
2023/06/09 09:41:00;;;;;;;5.00;4.50;;;;;;;26.32;48.02;100443.34;104967;1265;75114;-62
2023/06/09 09:43:28;;;;;;;;;;;;;;;26.46;47.71;100439.62;105011;1265;83631;-60
2023/06/09 09:46:01;;;;;;;4.70;4.10;;;;;;;26.58;47.19;100432.87;105226;1260;72692;-62
2023/06/09 09:48:30;;;;;;;6.20;4.00;;;;;;;26.72;47.20;100431.71;104704;1266;69269;-60
2023/06/09 09:50:58;;;;;;;11.60;4.20;;;;;;;26.91;46.99;100434.23;104817;1261;69084;-60
2023/06/09 09:53:27;;;;;;;6.00;4.00;;;;;;;27.06;46.50;100427.55;104960;1265;75042;-60
2023/06/09 09:55:59;;;;;;;4.70;3.70;;;;;;;27.04;46.04;100429.77;105493;1264;84653;-60
2023/06/09 09:58:35;;;;;;;5.80;3.60;;;;;;;27.00;45.94;100422.55;104979;1261;72662;-60
2023/06/09 10:01:07;;;;;;;5.50;3.70;;;;;;;26.96;45.62;100427.92;104911;1266;69231;-59
2023/06/09 10:03:38;;;;;;;5.90;4.00;;;;;;;27.06;45.56;100430.15;104897;1267;69205;-60
2023/06/09 10:06:12;;;;;;;4.10;3.70;;;;;;;27.33;45.49;100427.46;104916;1260;73648;-60
2023/06/09 10:08:42;;;;;;;5.90;4.20;;;;;;;27.67;45.31;100425.59;105147;1261;82900;-58
2023/06/09 10:11:12;;;;;;;8.30;3.70;;;;;;;27.99;44.85;100428.05;104929;1263;73572;-60
2023/06/09 10:13:41;;;;;;;5.50;3.80;;;;;;;28.09;44.21;100424.37;104916;1260;69212;-58
2023/06/09 10:16:12;;;;;;;4.90;3.60;;;;;;;28.05;43.57;100429.32;104926;1264;69170;-59
2023/06/09 10:18:41;;;;;;;5.70;3.70;;;;;;;27.91;43.50;100430.98;104907;1261;75970;-60
2023/06/09 10:21:11;;;;;;;5.90;3.60;;;;;;;27.73;42.96;100425.29;104774;1266;83183;-60
2023/06/09 10:23:40;;;;;;;4.70;3.50;;;;;;;27.74;43.22;100419.02;104996;1261;73759;-60
2023/06/09 10:26:10;;;;;;;4.20;3.50;;;;;;;27.95;43.15;100415.15;104885;1265;69099;-60
2023/06/09 10:28:39;;;;;;;6.90;3.60;;;;;;;28.23;42.90;100411.31;104824;1265;69209;-59
2023/06/09 10:31:11;;;;;;;6.00;3.70;;;;;;;28.42;42.46;100405.12;105034;1261;73915;-62
2023/06/09 10:33:44;;;;;;;6.80;3.40;;;;;;;28.59;42.18;100406.19;104885;1267;83345;-60
2023/06/09 10:36:12;;;;;;;4.90;3.40;;;;;;;28.68;41.88;100403.60;104913;1263;73729;-62
2023/06/09 10:38:42;;;;;;;4.10;3.20;;;;;;;28.65;41.44;100403.37;104855;1260;69280;-61
2023/06/09 10:41:12;;;;;;;3.70;3.20;;;;;;;28.60;41.54;100400.85;104951;1266;69203;-60
2023/06/09 10:44:02;;;;;;;5.70;3.70;;;;;;;28.55;41.35;100397.01;104940;1261;74891;-57
2023/06/09 10:46:41;;;;;;;4.50;4.00;;;;;;;28.61;41.36;100393.20;104900;1260;82436;-60
2023/06/09 10:49:36;;;;;;;3.60;3.30;;;;;;;28.67;41.05;100393.84;105146;1265;73587;-60
2023/06/09 10:52:40;;;;;;;3.60;3.30;;;;;;;28.81;40.67;100393.70;105006;1263;69333;-61
2023/06/09 10:55:12;;;;;;;4.00;3.00;;;;;;;29.06;40.68;100385.80;104950;1265;69199;-61
2023/06/09 10:57:43;;;;;;;4.80;2.60;;;;;;;29.38;40.12;100385.23;104852;1265;74585;-63
2023/06/09 11:00:11;;;;;;;4.30;3.10;;;;;;;29.53;39.62;100379.68;104975;1263;82600;-63
2023/06/09 11:02:48;;;;;;;4.50;2.90;;;;;;;29.57;39.48;100380.00;104918;1265;73726;-63
2023/06/09 11:05:19;;;;;;;4.50;2.90;;;;;;;29.56;39.03;100378.45;104873;1260;69218;-60
2023/06/09 11:07:53;;;;;;;6.90;2.90;;;;;;;29.48;38.85;100374.93;104849;1260;69154;-62
2023/06/09 11:10:21;;;;;;;4.90;3.00;;;;;;;29.61;38.76;100375.96;104992;1265;73234;-59
2023/06/09 11:12:52;;;;;;;5.40;3.00;;;;;;;29.94;38.54;100373.20;104837;1265;83350;-60
2023/06/09 11:15:22;;;;;;;4.10;2.90;;;;;;;30.29;38.33;100365.44;105028;1261;73625;-60
2023/06/09 11:17:52;;;;;;;4.40;3.00;;;;;;;30.69;38.00;100367.85;104859;1265;69231;-59
2023/06/09 11:20:24;;;;;;;3.20;2.50;;;;;;;31.10;37.38;100367.64;104888;1260;69638;-59
2023/06/09 11:22:54;;;;;;;2.70;2.50;;;;;;;31.36;37.11;100360.48;105007;1261;75260;-57
2023/06/09 11:25:24;;;;;;;5.00;2.90;;;;;;;31.80;36.95;100365.21;105052;1265;83930;-61
2023/06/09 11:27:56;;;;;;;6.80;3.10;;;;;;;32.08;36.50;100363.36;105129;1260;73711;-60
2023/06/09 11:30:27;;;;;;;3.10;2.70;;;;;;;32.21;35.77;100354.13;104802;1263;69247;-60